sensor_id;sensor_type;location;lat;lon;timestamp;pressure;altitude;pressure_sealevel;temperature;humidity
63006;BME280;53704;52.532;6.426;2023-12-07T00:00:11;101955.94;;;-0.40;100.00
63006;BME280;53704;52.532;6.426;2023-12-07T00:02:36;101966.06;;;-0.29;100.00
63006;BME280;53704;52.532;6.426;2023-12-07T00:05:02;101950.84;;;-0.45;100.00
63006;BME280;53704;52.532;6.426;2023-12-07T00:07:28;101960.88;;;-0.53;100.00
63006;BME280;53704;52.532;6.426;2023-12-07T00:09:54;101959.97;;;-0.52;100.00
63006;BME280;53704;52.532;6.426;2023-12-07T00:12:19;101954.94;;;-0.38;100.00
63006;BME280;53704;52.532;6.426;2023-12-07T00:14:45;101952.31;;;-0.38;100.00
63006;BME280;53704;52.532;6.426;2023-12-07T00:17:10;101953.47;;;-0.45;100.00
63006;BME280;53704;52.532;6.426;2023-12-07T00:19:36;101953.19;;;-0.59;100.00
63006;BME280;53704;52.532;6.426;2023-12-07T00:22:01;101944.94;;;-0.51;100.00
63006;BME280;53704;52.532;6.426;2023-12-07T00:24:27;101953.28;;;-0.40;100.00
63006;BME280;53704;52.532;6.426;2023-12-07T00:26:52;101959.72;;;-0.46;100.00
63006;BME280;53704;52.532;6.426;2023-12-07T00:29:18;101948.78;;;-0.17;100.00
63006;BME280;53704;52.532;6.426;2023-12-07T00:31:43;101955.59;;;-0.32;100.00
63006;BME280;53704;52.532;6.426;2023-12-07T00:34:09;101954.88;;;-0.36;100.00
63006;BME280;53704;52.532;6.426;2023-12-07T00:36:35;101956.91;;;-0.63;100.00
63006;BME280;53704;52.532;6.426;2023-12-07T00:39:01;101958.38;;;-0.78;100.00
63006;BME280;53704;52.532;6.426;2023-12-07T00:41:26;101959.16;;;-0.54;100.00
63006;BME280;53704;52.532;6.426;2023-12-07T00:43:52;101952.66;;;-0.67;100.00
63006;BME280;53704;52.532;6.426;2023-12-07T00:46:17;101963.53;;;-0.53;100.00
63006;BME280;53704;52.532;6.426;2023-12-07T00:48:43;101952.94;;;-0.53;100.00
63006;BME280;53704;52.532;6.426;2023-12-07T00:51:08;101960.38;;;-0.83;100.00
63006;BME280;53704;52.532;6.426;2023-12-07T00:53:37;101958.88;;;-0.68;100.00
63006;BME280;53704;52.532;6.426;2023-12-07T00:56:03;101958.69;;;-0.86;100.00
63006;BME280;53704;52.532;6.426;2023-12-07T00:58:29;101956.03;;;-0.64;100.00
63006;BME280;53704;52.532;6.426;2023-12-07T01:00:55;101961.78;;;-0.54;100.00
63006;BME280;53704;52.532;6.426;2023-12-07T01:03:20;101960.69;;;-0.48;100.00
63006;BME280;53704;52.532;6.426;2023-12-07T01:05:46;101962.88;;;-0.58;100.00
63006;BME280;53704;52.532;6.426;2023-12-07T01:08:11;101963.63;;;-0.77;100.00
63006;BME280;53704;52.532;6.426;2023-12-07T01:10:37;101966.31;;;-0.56;100.00
63006;BME280;53704;52.532;6.426;2023-12-07T01:13:02;101966.63;;;-0.64;100.00
63006;BME280;53704;52.532;6.426;2023-12-07T01:15:28;101968.78;;;-0.74;100.00
63006;BME280;53704;52.532;6.426;2023-12-07T01:17:53;101966.75;;;-0.67;100.00
63006;BME280;53704;52.532;6.426;2023-12-07T01:20:19;101979.66;;;-0.81;100.00
63006;BME280;53704;52.532;6.426;2023-12-07T01:22:45;101974.97;;;-0.75;100.00
63006;BME280;53704;52.532;6.426;2023-12-07T01:25:11;101969.78;;;-0.56;100.00
63006;BME280;53704;52.532;6.426;2023-12-07T01:27:37;101974.50;;;-0.62;100.00
63006;BME280;53704;52.532;6.426;2023-12-07T01:30:03;101970.59;;;-0.96;100.00
63006;BME280;53704;52.532;6.426;2023-12-07T01:32:29;101986.59;;;-1.23;100.00
63006;BME280;53704;52.532;6.426;2023-12-07T01:34:55;101980.03;;;-1.13;100.00
63006;BME280;53704;52.532;6.426;2023-12-07T01:37:20;101988.66;;;-0.63;100.00
63006;BME280;53704;52.532;6.426;2023-12-07T01:39:46;101990.09;;;-0.56;100.00
63006;BME280;53704;52.532;6.426;2023-12-07T01:42:11;101990.97;;;-0.56;100.00
63006;BME280;53704;52.532;6.426;2023-12-07T01:44:38;101989.34;;;-0.80;100.00
63006;BME280;53704;52.532;6.426;2023-12-07T01:47:04;101987.59;;;-0.59;100.00
63006;BME280;53704;52.532;6.426;2023-12-07T01:49:33;101987.94;;;-0.46;100.00
63006;BME280;53704;52.532;6.426;2023-12-07T01:51:59;101984.09;;;-0.60;100.00
63006;BME280;53704;52.532;6.426;2023-12-07T01:54:25;101988.66;;;-0.85;100.00
63006;BME280;53704;52.532;6.426;2023-12-07T01:56:51;101985.88;;;-1.04;100.00
63006;BME280;53704;52.532;6.426;2023-12-07T01:59:17;101990.25;;;-1.03;100.00
63006;BME280;53704;52.532;6.426;2023-12-07T02:01:43;101987.16;;;-1.15;100.00
63006;BME280;53704;52.532;6.426;2023-12-07T02:04:10;101979.53;;;-1.00;100.00
63006;BME280;53704;52.532;6.426;2023-12-07T02:06:36;101984.22;;;-0.85;100.00
63006;BME280;53704;52.532;6.426;2023-12-07T02:09:02;101984.41;;;-0.89;100.00
63006;BME280;53704;52.532;6.426;2023-12-07T02:11:28;101983.50;;;-0.66;100.00
63006;BME280;53704;52.532;6.426;2023-12-07T02:13:54;101976.22;;;-1.05;100.00
63006;BME280;53704;52.532;6.426;2023-12-07T02:17:01;101987.13;;;-0.91;100.00
63006;BME280;53704;52.532;6.426;2023-12-07T02:19:55;101983.75;;;-0.73;100.00
63006;BME280;53704;52.532;6.426;2023-12-07T02:22:29;101984.84;;;-0.78;100.00
63006;BME280;53704;52.532;6.426;2023-12-07T02:25:07;101988.72;;;-0.65;100.00
63006;BME280;53704;52.532;6.426;2023-12-07T02:27:40;101986.69;;;-1.02;100.00
63006;BME280;53704;52.532;6.426;2023-12-07T02:30:08;101983.81;;;-0.96;100.00
63006;BME280;53704;52.532;6.426;2023-12-07T02:32:38;101990.59;;;-0.91;100.00
63006;BME280;53704;52.532;6.426;2023-12-07T02:35:04;101986.25;;;-0.69;100.00
63006;BME280;53704;52.532;6.426;2023-12-07T02:37:35;101991.31;;;-0.63;100.00
63006;BME280;53704;52.532;6.426;2023-12-07T02:40:04;101985.88;;;-0.82;100.00
63006;BME280;53704;52.532;6.426;2023-12-07T02:42:31;101974.41;;;-1.27;100.00
63006;BME280;53704;52.532;6.426;2023-12-07T02:44:59;101977.53;;;-1.63;100.00
63006;BME280;53704;52.532;6.426;2023-12-07T02:47:25;101980.09;;;-1.38;100.00
63006;BME280;53704;52.532;6.426;2023-12-07T02:49:50;101977.50;;;-1.16;100.00
63006;BME280;53704;52.532;6.426;2023-12-07T02:52:16;101977.78;;;-1.23;100.00
63006;BME280;53704;52.532;6.426;2023-12-07T02:54:41;101974.94;;;-1.41;100.00
63006;BME280;53704;52.532;6.426;2023-12-07T02:57:07;101978.34;;;-1.61;100.00
63006;BME280;53704;52.532;6.426;2023-12-07T02:59:32;101975.13;;;-1.69;100.00
63006;BME280;53704;52.532;6.426;2023-12-07T03:01:58;101981.25;;;-1.92;100.00
63006;BME280;53704;52.532;6.426;2023-12-07T03:04:23;101974.31;;;-1.48;100.00
63006;BME280;53704;52.532;6.426;2023-12-07T03:06:49;101974.72;;;-1.13;100.00
63006;BME280;53704;52.532;6.426;2023-12-07T03:09:14;101984.88;;;-1.02;100.00
63006;BME280;53704;52.532;6.426;2023-12-07T03:11:40;101977.69;;;-0.98;100.00
63006;BME280;53704;52.532;6.426;2023-12-07T03:14:05;101973.56;;;-1.75;100.00
63006;BME280;53704;52.532;6.426;2023-12-07T03:16:30;101980.34;;;-1.91;100.00
63006;BME280;53704;52.532;6.426;2023-12-07T03:18:56;101988.78;;;-1.82;100.00
63006;BME280;53704;52.532;6.426;2023-12-07T03:21:21;101976.84;;;-1.68;100.00
63006;BME280;53704;52.532;6.426;2023-12-07T03:23:47;101970.38;;;-1.59;100.00
63006;BME280;53704;52.532;6.426;2023-12-07T03:26:12;101964.78;;;-1.75;100.00
63006;BME280;53704;52.532;6.426;2023-12-07T03:28:38;101976.28;;;-1.53;100.00
63006;BME280;53704;52.532;6.426;2023-12-07T03:31:03;101983.47;;;-1.56;100.00
63006;BME280;53704;52.532;6.426;2023-12-07T03:33:29;101982.41;;;-1.52;100.00
63006;BME280;53704;52.532;6.426;2023-12-07T03:35:55;101983.94;;;-1.94;100.00
63006;BME280;53704;52.532;6.426;2023-12-07T03:38:20;101982.00;;;-1.65;100.00
63006;BME280;53704;52.532;6.426;2023-12-07T03:40:45;101978.13;;;-1.55;100.00
63006;BME280;53704;52.532;6.426;2023-12-07T03:43:13;101987.69;;;-1.76;100.00
63006;BME280;53704;52.532;6.426;2023-12-07T03:45:38;101983.78;;;-1.66;100.00
63006;BME280;53704;52.532;6.426;2023-12-07T03:48:04;101980.34;;;-1.44;100.00
63006;BME280;53704;52.532;6.426;2023-12-07T03:50:30;101988.91;;;-2.10;100.00
63006;BME280;53704;52.532;6.426;2023-12-07T03:52:55;101999.53;;;-2.38;100.00
63006;BME280;53704;52.532;6.426;2023-12-07T03:55:20;102009.41;;;-2.18;100.00
63006;BME280;53704;52.532;6.426;2023-12-07T03:57:46;102011.13;;;-2.17;100.00
63006;BME280;53704;52.532;6.426;2023-12-07T04:00:12;102017.69;;;-2.56;100.00
63006;BME280;53704;52.532;6.426;2023-12-07T04:02:38;102017.13;;;-2.39;100.00
63006;BME280;53704;52.532;6.426;2023-12-07T04:05:04;102019.72;;;-2.37;100.00
63006;BME280;53704;52.532;6.426;2023-12-07T04:07:29;102016.00;;;-2.58;100.00
63006;BME280;53704;52.532;6.426;2023-12-07T04:09:55;102019.63;;;-2.09;100.00
63006;BME280;53704;52.532;6.426;2023-12-07T04:12:22;102019.31;;;-1.74;100.00
63006;BME280;53704;52.532;6.426;2023-12-07T04:14:49;102027.28;;;-1.76;100.00
63006;BME280;53704;52.532;6.426;2023-12-07T04:17:15;102026.53;;;-1.79;100.00
63006;BME280;53704;52.532;6.426;2023-12-07T04:19:40;102020.50;;;-1.83;100.00
63006;BME280;53704;52.532;6.426;2023-12-07T04:22:06;102017.56;;;-1.99;100.00
63006;BME280;53704;52.532;6.426;2023-12-07T04:24:32;102015.53;;;-2.17;100.00
63006;BME280;53704;52.532;6.426;2023-12-07T04:26:57;102022.72;;;-2.21;100.00
63006;BME280;53704;52.532;6.426;2023-12-07T04:29:23;102011.13;;;-1.92;100.00
63006;BME280;53704;52.532;6.426;2023-12-07T04:31:48;102007.00;;;-1.99;100.00
63006;BME280;53704;52.532;6.426;2023-12-07T04:34:14;102014.19;;;-1.79;100.00
63006;BME280;53704;52.532;6.426;2023-12-07T04:36:39;102014.03;;;-1.74;100.00
63006;BME280;53704;52.532;6.426;2023-12-07T04:39:08;102013.59;;;-1.62;100.00
63006;BME280;53704;52.532;6.426;2023-12-07T04:41:33;102011.84;;;-1.63;100.00
63006;BME280;53704;52.532;6.426;2023-12-07T04:43:59;102007.34;;;-1.59;100.00
63006;BME280;53704;52.532;6.426;2023-12-07T04:46:24;102012.44;;;-1.78;100.00
63006;BME280;53704;52.532;6.426;2023-12-07T04:48:50;102016.28;;;-1.89;100.00
63006;BME280;53704;52.532;6.426;2023-12-07T04:51:15;102019.06;;;-2.19;100.00
63006;BME280;53704;52.532;6.426;2023-12-07T04:53:41;102024.53;;;-1.73;100.00
63006;BME280;53704;52.532;6.426;2023-12-07T04:56:06;102018.66;;;-1.81;100.00
63006;BME280;53704;52.532;6.426;2023-12-07T04:58:32;102014.53;;;-1.65;100.00
63006;BME280;53704;52.532;6.426;2023-12-07T05:00:58;102007.78;;;-1.97;100.00
63006;BME280;53704;52.532;6.426;2023-12-07T05:03:24;102012.00;;;-2.43;100.00
63006;BME280;53704;52.532;6.426;2023-12-07T05:05:50;102013.50;;;-2.09;100.00
63006;BME280;53704;52.532;6.426;2023-12-07T05:08:15;102011.22;;;-2.20;100.00
63006;BME280;53704;52.532;6.426;2023-12-07T05:10:41;102002.47;;;-2.47;100.00
63006;BME280;53704;52.532;6.426;2023-12-07T05:13:06;102007.19;;;-2.57;100.00
63006;BME280;53704;52.532;6.426;2023-12-07T05:15:32;102004.34;;;-2.24;100.00
63006;BME280;53704;52.532;6.426;2023-12-07T05:17:57;102005.38;;;-2.03;100.00
63006;BME280;53704;52.532;6.426;2023-12-07T05:20:23;102010.00;;;-1.85;100.00
63006;BME280;53704;52.532;6.426;2023-12-07T05:22:49;102011.31;;;-2.23;100.00
63006;BME280;53704;52.532;6.426;2023-12-07T05:25:15;102019.25;;;-2.50;100.00
63006;BME280;53704;52.532;6.426;2023-12-07T05:27:41;102015.34;;;-2.11;100.00
63006;BME280;53704;52.532;6.426;2023-12-07T05:30:06;102021.09;;;-2.00;100.00
63006;BME280;53704;52.532;6.426;2023-12-07T05:32:32;102009.31;;;-1.90;100.00
63006;BME280;53704;52.532;6.426;2023-12-07T05:34:58;102008.88;;;-2.55;100.00
63006;BME280;53704;52.532;6.426;2023-12-07T05:37:24;102006.75;;;-2.43;100.00
63006;BME280;53704;52.532;6.426;2023-12-07T05:39:52;102006.16;;;-2.26;100.00
63006;BME280;53704;52.532;6.426;2023-12-07T05:42:17;102011.69;;;-2.61;100.00
63006;BME280;53704;52.532;6.426;2023-12-07T05:44:44;102007.00;;;-2.51;100.00
63006;BME280;53704;52.532;6.426;2023-12-07T05:47:09;102008.00;;;-2.55;100.00
63006;BME280;53704;52.532;6.426;2023-12-07T05:49:35;102006.88;;;-2.48;100.00
63006;BME280;53704;52.532;6.426;2023-12-07T05:52:00;101999.47;;;-2.63;100.00
63006;BME280;53704;52.532;6.426;2023-12-07T05:54:26;102002.88;;;-2.60;100.00
63006;BME280;53704;52.532;6.426;2023-12-07T05:56:51;102006.03;;;-2.23;100.00
63006;BME280;53704;52.532;6.426;2023-12-07T05:59:17;102005.41;;;-2.57;100.00
63006;BME280;53704;52.532;6.426;2023-12-07T06:01:42;102004.41;;;-2.52;100.00
63006;BME280;53704;52.532;6.426;2023-12-07T06:04:10;102003.56;;;-2.81;100.00
63006;BME280;53704;52.532;6.426;2023-12-07T06:06:39;102004.53;;;-2.57;100.00
63006;BME280;53704;52.532;6.426;2023-12-07T06:09:04;101999.28;;;-2.30;100.00
63006;BME280;53704;52.532;6.426;2023-12-07T06:11:33;101999.91;;;-2.24;100.00
63006;BME280;53704;52.532;6.426;2023-12-07T06:14:00;101994.53;;;-2.21;100.00
63006;BME280;53704;52.532;6.426;2023-12-07T06:16:25;102008.13;;;-2.60;100.00
63006;BME280;53704;52.532;6.426;2023-12-07T06:18:51;102001.91;;;-2.30;100.00
63006;BME280;53704;52.532;6.426;2023-12-07T06:21:17;102003.25;;;-2.72;100.00
63006;BME280;53704;52.532;6.426;2023-12-07T06:23:42;102007.75;;;-2.47;100.00
63006;BME280;53704;52.532;6.426;2023-12-07T06:26:08;102002.34;;;-2.71;100.00
63006;BME280;53704;52.532;6.426;2023-12-07T06:28:34;102003.06;;;-2.66;100.00
63006;BME280;53704;52.532;6.426;2023-12-07T06:31:05;101994.84;;;-2.83;100.00
63006;BME280;53704;52.532;6.426;2023-12-07T06:33:32;101998.66;;;-2.65;100.00
63006;BME280;53704;52.532;6.426;2023-12-07T06:35:58;102005.44;;;-2.58;100.00
63006;BME280;53704;52.532;6.426;2023-12-07T06:38:23;102007.41;;;-2.92;100.00
63006;BME280;53704;52.532;6.426;2023-12-07T06:40:49;102022.56;;;-2.43;100.00
63006;BME280;53704;52.532;6.426;2023-12-07T06:43:14;102018.47;;;-2.53;100.00
63006;BME280;53704;52.532;6.426;2023-12-07T06:45:43;102018.66;;;-2.86;100.00
63006;BME280;53704;52.532;6.426;2023-12-07T06:48:08;102025.31;;;-3.03;100.00
63006;BME280;53704;52.532;6.426;2023-12-07T06:50:34;102020.50;;;-3.18;100.00
63006;BME280;53704;52.532;6.426;2023-12-07T06:52:59;102022.81;;;-2.79;100.00
63006;BME280;53704;52.532;6.426;2023-12-07T06:55:25;102022.91;;;-3.11;100.00
63006;BME280;53704;52.532;6.426;2023-12-07T06:57:50;102020.19;;;-2.79;100.00
63006;BME280;53704;52.532;6.426;2023-12-07T07:00:16;102020.22;;;-3.09;100.00
63006;BME280;53704;52.532;6.426;2023-12-07T07:02:43;102021.34;;;-3.16;100.00
63006;BME280;53704;52.532;6.426;2023-12-07T07:05:08;102016.53;;;-3.32;100.00
63006;BME280;53704;52.532;6.426;2023-12-07T07:07:37;102020.41;;;-3.15;100.00
63006;BME280;53704;52.532;6.426;2023-12-07T07:10:02;102018.22;;;-2.73;100.00
63006;BME280;53704;52.532;6.426;2023-12-07T07:12:28;102026.13;;;-2.73;100.00
63006;BME280;53704;52.532;6.426;2023-12-07T07:14:55;102020.63;;;-2.93;100.00
63006;BME280;53704;52.532;6.426;2023-12-07T07:17:20;102022.69;;;-3.03;100.00
63006;BME280;53704;52.532;6.426;2023-12-07T07:19:46;102020.91;;;-3.32;100.00
63006;BME280;53704;52.532;6.426;2023-12-07T07:22:11;102013.78;;;-3.29;100.00
63006;BME280;53704;52.532;6.426;2023-12-07T07:24:37;102018.78;;;-3.49;100.00
63006;BME280;53704;52.532;6.426;2023-12-07T07:27:02;102024.50;;;-3.35;100.00
63006;BME280;53704;52.532;6.426;2023-12-07T07:29:28;102031.44;;;-3.32;100.00
63006;BME280;53704;52.532;6.426;2023-12-07T07:31:54;102032.53;;;-3.10;100.00
63006;BME280;53704;52.532;6.426;2023-12-07T07:34:21;102030.53;;;-3.01;100.00
63006;BME280;53704;52.532;6.426;2023-12-07T07:36:46;102028.31;;;-3.15;100.00
63006;BME280;53704;52.532;6.426;2023-12-07T07:39:12;102027.09;;;-3.03;100.00
63006;BME280;53704;52.532;6.426;2023-12-07T07:41:39;102032.50;;;-3.08;100.00
63006;BME280;53704;52.532;6.426;2023-12-07T07:44:05;102042.28;;;-3.13;100.00
63006;BME280;53704;52.532;6.426;2023-12-07T07:46:30;102043.22;;;-3.14;100.00
63006;BME280;53704;52.532;6.426;2023-12-07T07:48:56;102043.97;;;-3.11;100.00
63006;BME280;53704;52.532;6.426;2023-12-07T07:51:22;102055.63;;;-2.89;100.00
63006;BME280;53704;52.532;6.426;2023-12-07T07:53:47;102043.34;;;-2.89;100.00
63006;BME280;53704;52.532;6.426;2023-12-07T07:56:13;102043.25;;;-2.86;100.00
63006;BME280;53704;52.532;6.426;2023-12-07T07:58:38;102049.47;;;-2.88;100.00
63006;BME280;53704;52.532;6.426;2023-12-07T08:01:04;102045.78;;;-2.83;100.00
63006;BME280;53704;52.532;6.426;2023-12-07T08:03:30;102044.28;;;-2.92;100.00
63006;BME280;53704;52.532;6.426;2023-12-07T08:05:55;102059.81;;;-2.82;100.00
63006;BME280;53704;52.532;6.426;2023-12-07T08:08:21;102065.03;;;-2.81;100.00
63006;BME280;53704;52.532;6.426;2023-12-07T08:10:46;102054.31;;;-2.75;100.00
63006;BME280;53704;52.532;6.426;2023-12-07T08:13:12;102057.28;;;-2.85;100.00
63006;BME280;53704;52.532;6.426;2023-12-07T08:15:37;102060.69;;;-2.82;100.00
63006;BME280;53704;52.532;6.426;2023-12-07T08:18:03;102057.28;;;-2.85;100.00
63006;BME280;53704;52.532;6.426;2023-12-07T08:20:28;102056.38;;;-2.84;100.00
63006;BME280;53704;52.532;6.426;2023-12-07T08:22:54;102059.44;;;-2.70;100.00
63006;BME280;53704;52.532;6.426;2023-12-07T08:25:19;102061.94;;;-2.65;100.00
63006;BME280;53704;52.532;6.426;2023-12-07T08:27:46;102054.84;;;-2.63;100.00
63006;BME280;53704;52.532;6.426;2023-12-07T08:30:12;102053.97;;;-2.64;100.00
63006;BME280;53704;52.532;6.426;2023-12-07T08:32:39;102057.13;;;-2.52;100.00
63006;BME280;53704;52.532;6.426;2023-12-07T08:35:05;102056.84;;;-2.43;100.00
63006;BME280;53704;52.532;6.426;2023-12-07T08:37:32;102058.66;;;-2.45;100.00
63006;BME280;53704;52.532;6.426;2023-12-07T08:39:58;102055.00;;;-2.41;100.00
63006;BME280;53704;52.532;6.426;2023-12-07T08:42:23;102066.06;;;-2.30;100.00
63006;BME280;53704;52.532;6.426;2023-12-07T08:44:49;102060.19;;;-2.38;100.00
63006;BME280;53704;52.532;6.426;2023-12-07T08:47:14;102054.00;;;-2.37;100.00
63006;BME280;53704;52.532;6.426;2023-12-07T08:49:40;102053.88;;;-2.32;100.00
63006;BME280;53704;52.532;6.426;2023-12-07T08:52:05;102065.00;;;-2.24;100.00
63006;BME280;53704;52.532;6.426;2023-12-07T08:54:31;102062.56;;;-2.30;100.00
63006;BME280;53704;52.532;6.426;2023-12-07T08:56:57;102060.84;;;-2.31;100.00
63006;BME280;53704;52.532;6.426;2023-12-07T08:59:22;102060.19;;;-2.11;100.00
63006;BME280;53704;52.532;6.426;2023-12-07T09:01:48;102063.47;;;-2.05;100.00
63006;BME280;53704;52.532;6.426;2023-12-07T09:04:13;102065.22;;;-2.04;100.00
63006;BME280;53704;52.532;6.426;2023-12-07T09:06:38;102059.63;;;-1.94;100.00
63006;BME280;53704;52.532;6.426;2023-12-07T09:09:04;102051.84;;;-1.99;100.00
63006;BME280;53704;52.532;6.426;2023-12-07T09:11:30;102054.19;;;-1.90;100.00
63006;BME280;53704;52.532;6.426;2023-12-07T09:13:56;102057.47;;;-1.83;100.00
63006;BME280;53704;52.532;6.426;2023-12-07T09:16:22;102055.16;;;-1.92;100.00
63006;BME280;53704;52.532;6.426;2023-12-07T09:18:47;102051.84;;;-1.99;100.00
63006;BME280;53704;52.532;6.426;2023-12-07T09:21:13;102056.47;;;-1.80;100.00
63006;BME280;53704;52.532;6.426;2023-12-07T09:23:39;102058.09;;;-1.76;100.00
63006;BME280;53704;52.532;6.426;2023-12-07T09:26:04;102052.25;;;-1.85;100.00
63006;BME280;53704;52.532;6.426;2023-12-07T09:28:31;102051.25;;;-1.82;100.00
63006;BME280;53704;52.532;6.426;2023-12-07T09:30:58;102043.16;;;-1.77;100.00
63006;BME280;53704;52.532;6.426;2023-12-07T09:33:24;102049.81;;;-1.91;100.00
63006;BME280;53704;52.532;6.426;2023-12-07T09:35:50;102052.41;;;-1.64;100.00
63006;BME280;53704;52.532;6.426;2023-12-07T09:38:15;102053.47;;;-1.70;100.00
63006;BME280;53704;52.532;6.426;2023-12-07T09:40:42;102051.56;;;-1.66;100.00
63006;BME280;53704;52.532;6.426;2023-12-07T09:43:07;102049.44;;;-1.55;100.00
63006;BME280;53704;52.532;6.426;2023-12-07T09:45:33;102039.88;;;-1.59;100.00
63006;BME280;53704;52.532;6.426;2023-12-07T09:47:59;102043.31;;;-1.57;100.00
63006;BME280;53704;52.532;6.426;2023-12-07T09:50:27;102045.66;;;-1.73;100.00
63006;BME280;53704;52.532;6.426;2023-12-07T09:52:57;102042.75;;;-1.41;100.00
63006;BME280;53704;52.532;6.426;2023-12-07T09:55:23;102039.78;;;-1.56;100.00
63006;BME280;53704;52.532;6.426;2023-12-07T09:57:50;102037.47;;;-1.41;100.00
63006;BME280;53704;52.532;6.426;2023-12-07T10:00:16;102037.06;;;-1.54;100.00
63006;BME280;53704;52.532;6.426;2023-12-07T10:02:45;102037.13;;;-1.56;100.00
63006;BME280;53704;52.532;6.426;2023-12-07T10:05:12;102041.72;;;-1.61;100.00
63006;BME280;53704;52.532;6.426;2023-12-07T10:07:46;102034.22;;;-1.48;100.00
63006;BME280;53704;52.532;6.426;2023-12-07T10:10:15;102025.13;;;-1.41;100.00
63006;BME280;53704;52.532;6.426;2023-12-07T10:12:48;102024.84;;;-1.33;100.00
63006;BME280;53704;52.532;6.426;2023-12-07T10:15:17;102019.94;;;-1.20;100.00
63006;BME280;53704;52.532;6.426;2023-12-07T10:17:47;102021.69;;;-1.19;100.00
63006;BME280;53704;52.532;6.426;2023-12-07T10:20:17;102014.50;;;-1.16;100.00
63006;BME280;53704;52.532;6.426;2023-12-07T10:22:46;102018.13;;;-1.18;100.00
63006;BME280;53704;52.532;6.426;2023-12-07T10:25:12;102015.44;;;-1.17;100.00
63006;BME280;53704;52.532;6.426;2023-12-07T10:27:40;102006.88;;;-1.01;100.00
63006;BME280;53704;52.532;6.426;2023-12-07T10:30:09;102001.53;;;-1.00;100.00
63006;BME280;53704;52.532;6.426;2023-12-07T10:32:36;101997.00;;;-1.18;100.00
63006;BME280;53704;52.532;6.426;2023-12-07T10:35:03;101998.75;;;-1.19;100.00
63006;BME280;53704;52.532;6.426;2023-12-07T10:37:29;101989.44;;;-1.05;100.00
63006;BME280;53704;52.532;6.426;2023-12-07T10:39:54;101995.66;;;-1.06;100.00
63006;BME280;53704;52.532;6.426;2023-12-07T10:42:23;102000.72;;;-1.24;100.00
63006;BME280;53704;52.532;6.426;2023-12-07T10:44:50;101989.81;;;-1.15;100.00
63006;BME280;53704;52.532;6.426;2023-12-07T10:47:18;101995.38;;;-1.22;100.00
63006;BME280;53704;52.532;6.426;2023-12-07T10:49:46;101988.19;;;-1.19;100.00
63006;BME280;53704;52.532;6.426;2023-12-07T10:52:16;101986.91;;;-1.08;100.00
63006;BME280;53704;52.532;6.426;2023-12-07T10:54:56;101993.31;;;-0.92;100.00
63006;BME280;53704;52.532;6.426;2023-12-07T10:57:25;101980.16;;;-0.94;100.00
63006;BME280;53704;52.532;6.426;2023-12-07T10:59:52;101988.03;;;-0.92;100.00
63006;BME280;53704;52.532;6.426;2023-12-07T11:02:21;101982.91;;;-0.75;100.00
63006;BME280;53704;52.532;6.426;2023-12-07T11:04:46;101996.44;;;-0.82;100.00
63006;BME280;53704;52.532;6.426;2023-12-07T11:07:20;101993.66;;;-1.01;100.00
63006;BME280;53704;52.532;6.426;2023-12-07T11:09:56;101983.63;;;-0.92;100.00
63006;BME280;53704;52.532;6.426;2023-12-07T11:12:48;101972.66;;;-0.82;100.00
63006;BME280;53704;52.532;6.426;2023-12-07T11:15:16;101960.88;;;-0.53;100.00
63006;BME280;53704;52.532;6.426;2023-12-07T11:17:54;101964.53;;;-0.78;100.00
63006;BME280;53704;52.532;6.426;2023-12-07T11:20:34;101956.16;;;-0.67;100.00
63006;BME280;53704;52.532;6.426;2023-12-07T11:23:04;101956.50;;;-0.54;100.00
63006;BME280;53704;52.532;6.426;2023-12-07T11:25:30;101947.09;;;-0.82;100.00
63006;BME280;53704;52.532;6.426;2023-12-07T11:28:06;101937.59;;;-0.87;100.00
63006;BME280;53704;52.532;6.426;2023-12-07T11:30:35;101935.50;;;-0.79;100.00
63006;BME280;53704;52.532;6.426;2023-12-07T11:33:02;101930.59;;;-0.66;100.00
63006;BME280;53704;52.532;6.426;2023-12-07T11:35:28;101937.72;;;-0.68;100.00
63006;BME280;53704;52.532;6.426;2023-12-07T11:40:35;101931.91;;;-0.56;100.00
63006;BME280;53704;52.532;6.426;2023-12-07T11:43:01;101928.06;;;-0.69;100.00
63006;BME280;53704;52.532;6.426;2023-12-07T11:45:40;101933.19;;;-0.65;100.00
63006;BME280;53704;52.532;6.426;2023-12-07T11:48:12;101933.50;;;-0.52;100.00
63006;BME280;53704;52.532;6.426;2023-12-07T11:51:04;101931.34;;;-0.42;100.00
63006;BME280;53704;52.532;6.426;2023-12-07T11:53:34;101922.00;;;-0.30;100.00
63006;BME280;53704;52.532;6.426;2023-12-07T11:56:04;101914.44;;;-0.19;100.00
63006;BME280;53704;52.532;6.426;2023-12-07T11:58:31;101922.13;;;-0.33;100.00
63006;BME280;53704;52.532;6.426;2023-12-07T12:00:57;101922.94;;;-0.31;100.00
63006;BME280;53704;52.532;6.426;2023-12-07T12:03:24;101912.63;;;-0.38;100.00
63006;BME280;53704;52.532;6.426;2023-12-07T12:05:50;101914.63;;;-0.43;100.00
63006;BME280;53704;52.532;6.426;2023-12-07T12:08:19;101913.94;;;-0.48;100.00
63006;BME280;53704;52.532;6.426;2023-12-07T12:10:45;101910.69;;;-0.34;100.00
63006;BME280;53704;52.532;6.426;2023-12-07T12:13:11;101899.47;;;-0.39;100.00
63006;BME280;53704;52.532;6.426;2023-12-07T12:15:40;101889.69;;;-0.18;100.00
63006;BME280;53704;52.532;6.426;2023-12-07T12:18:07;101889.19;;;-0.26;100.00
63006;BME280;53704;52.532;6.426;2023-12-07T12:20:33;101897.31;;;-0.10;100.00
63006;BME280;53704;52.532;6.426;2023-12-07T12:22:59;101884.06;;;-0.10;100.00
63006;BME280;53704;52.532;6.426;2023-12-07T12:25:29;101880.78;;;-0.15;100.00
63006;BME280;53704;52.532;6.426;2023-12-07T12:28:02;101882.47;;;-0.14;100.00
63006;BME280;53704;52.532;6.426;2023-12-07T12:30:28;101871.47;;;-0.05;100.00
63006;BME280;53704;52.532;6.426;2023-12-07T12:32:55;101869.94;;;0.10;100.00
63006;BME280;53704;52.532;6.426;2023-12-07T12:35:24;101874.88;;;-0.02;100.00
63006;BME280;53704;52.532;6.426;2023-12-07T12:37:50;101875.72;;;-0.01;100.00
63006;BME280;53704;52.532;6.426;2023-12-07T12:40:17;101860.88;;;-0.24;100.00